Marten — 5BNU3 — position and weather

sailwx.info

Track history (hours):
 
Tides and Currents Weather Stations Pressure Air Temp Water Temp Dewpoint Dewpoint Depression Visibility Wind Speed Wind Dir Waves Ship Positions

Marten

Last reported at 2017-Jun-25 06:59 UTC. Time now 2017-Jun-26 03:48 UTC.
Position N 58°26' E 004°54'.

Length 90 m; draft 5.8 m.

Type: Ship. MMSI: 212376000.

Date/timePositionNaut miles runAvg speedWind from/ knotsBaromVisibWave heightAir tempDewpointWater temp
2017-Jun-25 06:59N 58°26' E 004°54'3 6.8
2017-Jun-25 06:30N 58°29' E 004°55'3 6.9
2017-Jun-25 06:00N 58°33' E 004°57'3 6.8
2017-Jun-25 05:30N 58°36' E 004°59'4 7.4
2017-Jun-25 05:00N 58°40' E 004°59'4 7.9
2017-Jun-25 04:30N 58°44' E 004°57'5 8.1
2017-Jun-25 03:56N 58°48' E 004°55'3 8.0
2017-Jun-25 03:30N 58°51' E 004°54'37 9.0
2017-Jun-24 23:20N 59°29' E 004°43'3 8.9
2017-Jun-24 23:00N 59°32' E 004°42'4 8.6
2017-Jun-24 22:29N 59°36' E 004°42'4 8.3
2017-Jun-24 22:00N 59°40' E 004°42'4 8.1
2017-Jun-24 21:30N 59°44' E 004°41'4 8.1
2017-Jun-24 21:00N 59°48' E 004°40'4 7.9
2017-Jun-24 20:30N 59°52' E 004°39'4 8.0
2017-Jun-24 20:00N 59°56' E 004°38'4 7.8
2017-Jun-24 19:30N 59°60' E 004°37'4 7.6
2017-Jun-24 19:00N 60°03' E 004°36'4 7.2
2017-Jun-24 18:30N 60°07' E 004°36'4 7.2
2017-Jun-24 18:00N 60°11' E 004°35'4 7.4
2017-Jun-24 17:30N 60°14' E 004°35'4 7.6
2017-Jun-24 17:00N 60°18' E 004°34'4 7.6
2017-Jun-24 16:30N 60°22' E 004°32'4 7.8
2017-Jun-24 16:00N 60°26' E 004°31'4 7.9
2017-Jun-24 15:30N 60°30' E 004°30'4 8.2
2017-Jun-24 15:00N 60°34' E 004°29'8 8.0
2017-Jun-24 14:00N 60°42' E 004°28'4 7.7
2017-Jun-24 13:30N 60°46' E 004°28'4 7.8
2017-Jun-24 13:00N 60°50' E 004°27'4 7.7
2017-Jun-24 12:30N 60°53' E 004°26'4 8.1
2017-Jun-24 11:59N 60°58' E 004°25'4 7.9
2017-Jun-24 11:30N 61°01' E 004°25'4 7.9
2017-Jun-24 11:00N 61°05' E 004°25'4 8.4
2017-Jun-24 10:30N 61°10' E 004°26'4 8.9
2017-Jun-24 10:00N 61°14' E 004°27'5 9.0
2017-Jun-24 09:30N 61°18' E 004°27'4 8.9
2017-Jun-24 09:00N 61°23' E 004°28'4 8.8
2017-Jun-24 08:30N 61°27' E 004°28'4 8.8
2017-Jun-24 08:00N 61°32' E 004°29'4 8.5
2017-Jun-24 07:29N 61°36' E 004°31'4 8.1
2017-Jun-24 07:00N 61°40' E 004°32'4 7.4
2017-Jun-24 06:30N 61°41' E 004°40'4 7.7
2017-Jun-24 06:00N 61°42' E 004°47'4 7.8
2017-Jun-24 05:30N 61°43' E 004°55'3 6.3
2017-Jun-24 05:00N 61°40' E 004°58'0 0.0
2017-Jun-24 04:28N 61°40' E 004°58'0 0.0
2017-Jun-24 03:55N 61°40' E 004°58'0 0.0
2017-Jun-24 03:28N 61°40' E 004°58'0 0.0
2017-Jun-24 02:58N 61°40' E 004°58'0 0.0
2017-Jun-24 02:28N 61°40' E 004°58'0 0.0
2017-Jun-24 01:58N 61°40' E 004°58'0 0.0
2017-Jun-24 01:28N 61°40' E 004°58'0 0.0
2017-Jun-24 00:58N 61°40' E 004°58'0 0.0
2017-Jun-24 00:28N 61°40' E 004°58'0 0.0
2017-Jun-23 23:58N 61°40' E 004°58'0 0.0
2017-Jun-23 23:28N 61°40' E 004°58'0 0.0
2017-Jun-23 22:58N 61°40' E 004°58'0 0.0
2017-Jun-23 22:28N 61°40' E 004°58'0 0.0
2017-Jun-23 21:58N 61°40' E 004°58'0 0.0
2017-Jun-23 21:28N 61°40' E 004°58'0 0.0
2017-Jun-23 20:58N 61°40' E 004°58'0 0.0
2017-Jun-23 20:28N 61°40' E 004°58'0 0.0
2017-Jun-23 19:58N 61°40' E 004°58'0 0.0
2017-Jun-23 19:28N 61°40' E 004°58'0 0.0
2017-Jun-23 18:58N 61°40' E 004°58'0 0.0
2017-Jun-23 18:28N 61°40' E 004°58'0 0.0
2017-Jun-23 17:58N 61°40' E 004°58'0 0.0
2017-Jun-23 17:28N 61°40' E 004°58'0 0.0
2017-Jun-23 16:58N 61°40' E 004°58'0 0.0
2017-Jun-23 16:28N 61°40' E 004°58'0 0.0
2017-Jun-23 15:58N 61°40' E 004°58'0 0.0
2017-Jun-23 15:30N 61°40' E 004°58'2 4.9
2017-Jun-23 15:00N 61°42' E 004°56'4 8.2
2017-Jun-23 14:30N 61°42' E 004°47'4 8.5
2017-Jun-23 14:00N 61°44' E 004°38'3 6.3
2017-Jun-23 13:29N 61°47' E 004°37'4 7.6
2017-Jun-23 13:00N 61°50' E 004°39'4 7.6
2017-Jun-23 12:30N 61°54' E 004°41'4 8.0
2017-Jun-23 12:00N 61°58' E 004°45'611.0
2017-Jun-23 11:29N 62°03' E 004°49'510.8
2017-Jun-23 10:59N 62°08' E 004°54'510.8
2017-Jun-23 10:30N 62°13' E 004°58'510.8
2017-Jun-23 10:00N 62°17' E 005°04'510.8
2017-Jun-23 09:30N 62°22' E 005°11'511.1
2017-Jun-23 09:00N 62°26' E 005°19'611.4
2017-Jun-23 08:30N 62°30' E 005°27'611.2
2017-Jun-23 08:00N 62°34' E 005°35'510.7
2017-Jun-23 07:30N 62°38' E 005°43'510.9
2017-Jun-23 07:00N 62°42' E 005°51'510.9
2017-Jun-23 06:30N 62°46' E 005°59'511.0
2017-Jun-23 06:00N 62°51' E 006°07'511.0
2017-Jun-23 05:30N 62°55' E 006°15'610.8
2017-Jun-23 05:00N 62°59' E 006°22'511.0
2017-Jun-23 04:30N 63°03' E 006°30'511.0
2017-Jun-23 04:00N 63°07' E 006°39'611.0
2017-Jun-23 03:30N 63°11' E 006°47'510.9
2017-Jun-23 03:00N 63°15' E 006°55'611.0
2017-Jun-23 02:30N 63°19' E 007°03'611.2
2017-Jun-23 02:00N 63°23' E 007°11'611.1
2017-Jun-23 01:30N 63°28' E 007°19'611.3
2017-Jun-23 01:00N 63°32' E 007°28'611.3
2017-Jun-23 00:30N 63°36' E 007°36'610.9
2017-Jun-23 00:00N 63°40' E 007°45'511.1
2017-Jun-22 23:30N 63°44' E 007°53'611.1
2017-Jun-22 23:00N 63°48' E 008°01'611.1
2017-Jun-22 22:30N 63°52' E 008°10'510.9
2017-Jun-22 21:59N 63°56' E 008°19'9010.9
2017-Jun-22 13:44N 65°08' E 010°27'311.1
2017-Jun-22 13:30N 65°10' E 010°30'611.2
2017-Jun-22 13:00N 65°15' E 010°35'611.8
2017-Jun-22 12:30N 65°21' E 010°41'611.3
2017-Jun-22 12:00N 65°26' E 010°45'52 9.4
2017-Jun-22 06:25N 66°13' E 011°42'4 9.4
2017-Jun-22 06:00N 66°14' E 011°51'5 9.5
2017-Jun-22 05:29N 66°16' E 012°03'5 9.7
2017-Jun-22 05:00N 66°17' E 012°14'5 9.9
2017-Jun-22 04:30N 66°15' E 012°26'5 9.1
2017-Jun-22 04:00N 66°15' E 012°37'611.0
2017-Jun-22 03:30N 66°11' E 012°48'510.3
2017-Jun-22 02:59N 66°10' E 013°01'612.3
2017-Jun-22 02:30N 66°13' E 013°14'611.4
2017-Jun-22 02:00N 66°14' E 013°27'611.9
2017-Jun-22 01:29N 66°15' E 013°42'611.6
2017-Jun-22 01:00N 66°16' E 013°56'5 9.4
2017-Jun-22 00:30N 66°18' E 014°07'0 0.1
2017-Jun-21 23:59N 66°18' E 014°07'0 0.0
2017-Jun-21 23:29N 66°18' E 014°07'0 0.0
2017-Jun-21 22:59N 66°18' E 014°07'0 0.0
2017-Jun-21 22:30N 66°18' E 014°07'0 0.0
2017-Jun-21 22:00N 66°18' E 014°07'0 0.0
2017-Jun-21 21:30N 66°18' E 014°07'0 0.0
2017-Jun-21 20:59N 66°18' E 014°07'0 0.0
2017-Jun-21 20:29N 66°18' E 014°07'0 0.0
2017-Jun-21 19:59N 66°18' E 014°07'0 0.0
2017-Jun-21 19:29N 66°18' E 014°07'0 0.0
2017-Jun-21 18:59N 66°18' E 014°07'0 0.0
2017-Jun-21 18:29N 66°18' E 014°07'0 0.0
2017-Jun-21 17:59N 66°18' E 014°07'0 0.0
2017-Jun-21 17:29N 66°18' E 014°07'0 0.0
2017-Jun-21 16:59N 66°18' E 014°07'0 0.0
2017-Jun-21 16:29N 66°18' E 014°07'0 0.0
2017-Jun-21 15:59N 66°18' E 014°07'0 0.0
2017-Jun-21 15:29N 66°18' E 014°07'0 0.0
2017-Jun-21 14:59N 66°18' E 014°07'0 0.0
2017-Jun-21 14:29N 66°18' E 014°07'0 0.0
2017-Jun-21 13:29N 66°18' E 014°07'0 0.0
2017-Jun-21 12:59N 66°18' E 014°07'0 0.0
2017-Jun-21 12:29N 66°18' E 014°07'0 0.0
2017-Jun-21 11:59N 66°18' E 014°07'0 0.0
2017-Jun-21 11:29N 66°18' E 014°07'0 0.0
2017-Jun-21 11:00N 66°18' E 014°07'0 0.0
2017-Jun-21 10:29N 66°18' E 014°07'0 0.0
2017-Jun-21 09:59N 66°18' E 014°07'0 0.0
2017-Jun-21 09:29N 66°18' E 014°07'0 0.0
2017-Jun-21 08:59N 66°18' E 014°07'0 0.0
2017-Jun-21 08:29N 66°18' E 014°07'0 0.0
2017-Jun-21 07:59N 66°18' E 014°07'0 0.0
2017-Jun-21 07:29N 66°18' E 014°07'0 0.0
2017-Jun-21 06:59N 66°18' E 014°07'1 1.4
2017-Jun-21 06:30N 66°18' E 014°05'510.3
2017-Jun-21 06:00N 66°16' E 013°54'510.4
2017-Jun-21 05:30N 66°15' E 013°41'5 9.9
2017-Jun-21 05:00N 66°15' E 013°29'5 9.3
2017-Jun-21 04:30N 66°14' E 013°18'5 9.5
2017-Jun-21 04:00N 66°11' E 013°08'5 9.8
2017-Jun-21 03:30N 66°09' E 012°57'5 9.4
2017-Jun-21 03:00N 66°12' E 012°47'510.3
2017-Jun-21 02:30N 66°15' E 012°36'4 8.9
2017-Jun-21 02:00N 66°15' E 012°26'4 8.6
2017-Jun-21 01:30N 66°17' E 012°16'4 8.7
2017-Jun-21 01:00N 66°16' E 012°06'5 9.0
2017-Jun-21 00:30N 66°15' E 011°55'258 9.9
2017-Jun-19 22:22N 62°52' E 005°44'410.6
2017-Jun-19 22:00N 62°49' E 005°39'510.3
2017-Jun-19 21:30N 62°45' E 005°32'510.4
2017-Jun-19 21:00N 62°40' E 005°25'510.6
2017-Jun-19 20:30N 62°36' E 005°18'510.7
2017-Jun-19 20:00N 62°32' E 005°11'510.8
2017-Jun-19 19:30N 62°28' E 005°04'510.6
2017-Jun-19 19:00N 62°23' E 004°59'510.6
2017-Jun-19 18:30N 62°18' E 004°54'510.7
2017-Jun-19 18:00N 62°13' E 004°49'510.6
2017-Jun-19 17:29N 62°08' E 004°44'510.7
2017-Jun-19 17:00N 62°04' E 004°39'611.0
2017-Jun-19 16:28N 61°58' E 004°34'510.9
2017-Jun-19 16:00N 61°54' E 004°29'2810.4
2017-Jun-19 13:22N 61°27' E 004°20'511.5
2017-Jun-19 12:57N 61°22' E 004°20'511.8
2017-Jun-19 12:30N 61°17' E 004°20'611.5
2017-Jun-19 12:00N 61°11' E 004°21'611.8
2017-Jun-19 11:30N 61°05' E 004°22'611.8
2017-Jun-19 11:00N 60°59' E 004°23'611.9
2017-Jun-19 10:30N 60°53' E 004°25'611.8
2017-Jun-19 10:00N 60°47' E 004°26'611.6
2017-Jun-19 09:30N 60°42' E 004°27'611.0
2017-Jun-19 09:00N 60°36' E 004°29'611.4
2017-Jun-19 08:30N 60°30' E 004°31'611.0
2017-Jun-19 08:00N 60°25' E 004°33'510.9
2017-Jun-19 07:30N 60°20' E 004°36'611.1
2017-Jun-19 07:00N 60°14' E 004°37'610.9
2017-Jun-19 06:30N 60°09' E 004°38'510.5
2017-Jun-19 06:01N 60°04' E 004°40'510.3
2017-Jun-19 05:30N 59°58' E 004°40'510.6
2017-Jun-19 05:00N 59°53' E 004°38'4410.6
2017-Jun-19 00:52N 59°10' E 004°49'411.0
2017-Jun-19 00:30N 59°06' E 004°53'611.0
2017-Jun-19 00:00N 59°01' E 004°58'510.6
2017-Jun-18 23:30N 58°57' E 005°04'510.9
2017-Jun-18 23:00N 58°52' E 005°09'611.4
2017-Jun-18 22:30N 58°47' E 005°15'611.3
2017-Jun-18 22:00N 58°43' E 005°20'611.2
2017-Jun-18 21:30N 58°38' E 005°26'510.9
2017-Jun-18 21:00N 58°33' E 005°32'510.5
2017-Jun-18 20:30N 58°29' E 005°37'510.1
2017-Jun-18 20:00N 58°25' E 005°44'510.1
2017-Jun-18 19:30N 58°22' E 005°51'510.5
2017-Jun-18 19:00N 58°18' E 005°58'611.1
2017-Jun-18 18:30N 58°14' E 006°06'510.9
2017-Jun-18 18:00N 58°11' E 006°14'510.8
2017-Jun-18 17:30N 58°07' E 006°21'510.5
2017-Jun-18 17:00N 58°03' E 006°28'5 9.8
2017-Jun-18 16:30N 58°01' E 006°36'5 9.4
2017-Jun-18 16:00N 57°59' E 006°44'5 9.8
2017-Jun-18 15:30N 57°57' E 006°52'5 9.6
2017-Jun-18 15:00N 57°55' E 007°01'10 9.8
2017-Jun-18 14:00N 57°54' E 007°19'510.6
2017-Jun-18 13:29N 57°54' E 007°29'510.8
2017-Jun-18 13:00N 57°54' E 007°39'611.0
2017-Jun-18 12:30N 57°54' E 007°50'611.3
2017-Jun-18 12:00N 57°53' E 008°00'611.2
2017-Jun-18 11:30N 57°53' E 008°11'510.7
2017-Jun-18 11:00N 57°53' E 008°21'36 9.3
2017-Jun-18 07:08N 57°51' E 009°28'1 9.1
2017-Jun-18 06:59N 57°51' E 009°31'5 9.3
2017-Jun-18 06:27N 57°51' E 009°40'4 9.4
2017-Jun-18 06:00N 57°50' E 009°48'5 9.6
2017-Jun-18 05:30N 57°50' E 009°57'5 9.8
2017-Jun-18 05:00N 57°50' E 010°06'510.0
2017-Jun-18 04:30N 57°50' E 010°16'5 9.7
2017-Jun-18 04:00N 57°49' E 010°25'5 9.2
2017-Jun-18 03:30N 57°49' E 010°33'4 9.0
2017-Jun-18 03:00N 57°49' E 010°42'4 8.5
2017-Jun-18 02:30N 57°47' E 010°49'5 9.3
2017-Jun-18 02:00N 57°44' E 010°55'5 9.1
2017-Jun-18 01:30N 57°41' E 011°02'5 9.4
2017-Jun-18 01:00N 57°38' E 011°08'5 9.4
2017-Jun-18 00:30N 57°34' E 011°14'5 9.8
2017-Jun-18 00:00N 57°31' E 011°21'5 9.7
2017-Jun-17 23:30N 57°28' E 011°27'5 9.9
2017-Jun-17 23:00N 57°23' E 011°30'5 9.9
2017-Jun-17 22:30N 57°18' E 011°33'5 9.9
2017-Jun-17 22:00N 57°14' E 011°37'610.8
2017-Jun-17 21:29N 57°08' E 011°40'510.9
2017-Jun-17 21:00N 57°04' E 011°44'810.6
2017-Jun-17 20:13N 56°56' E 011°50'210.1
2017-Jun-17 19:59N 56°54' E 011°52'610.2
2017-Jun-17 19:24N 56°49' E 011°57'410.6
2017-Jun-17 19:00N 56°45' E 012°01'910.3
2017-Jun-17 18:07N 56°37' E 012°08'110.0
2017-Jun-17 17:59N 56°35' E 012°09'510.3
2017-Jun-17 17:30N 56°31' E 012°13'510.4
2017-Jun-17 17:00N 56°26' E 012°17'510.6
2017-Jun-17 16:30N 56°21' E 012°20'510.5
2017-Jun-17 16:00N 56°17' E 012°25'510.6
2017-Jun-17 15:30N 56°12' E 012°29'510.4
2017-Jun-17 15:00N 56°07' E 012°33'10 9.7
2017-Jun-17 14:01N 55°59' E 012°42'5 9.9
2017-Jun-17 13:30N 55°54' E 012°45'510.3
2017-Jun-17 13:00N 55°49' E 012°43'510.4
2017-Jun-17 12:30N 55°44' E 012°42'510.5
2017-Jun-17 12:00N 55°39' E 012°42'510.5
2017-Jun-17 11:30N 55°34' E 012°42'510.6
2017-Jun-17 11:00N 55°28' E 012°43'510.6
2017-Jun-17 10:30N 55°23' E 012°42'5 9.6
2017-Jun-17 10:00N 55°18' E 012°43'510.7
2017-Jun-17 09:30N 55°16' E 012°52'510.5
2017-Jun-17 09:00N 55°12' E 012°59'101 9.0
2017-Jun-16 21:50N 53°45' E 014°25'310.3
2017-Jun-16 21:30N 53°42' E 014°28'510.2
2017-Jun-16 21:00N 53°38' E 014°34'8 9.9
2017-Jun-16 20:12N 53°31' E 014°38'2 8.5
2017-Jun-16 19:56N 53°29' E 014°37'0 0.2
2017-Jun-16 19:24N 53°29' E 014°37'0 0.0
2017-Jun-16 18:57N 53°29' E 014°37'0 0.0
2017-Jun-16 18:30N 53°29' E 014°37'0 0.0
2017-Jun-16 17:55N 53°29' E 014°37'0 0.0
2017-Jun-16 17:29N 53°29' E 014°37'0 0.0
2017-Jun-16 16:57N 53°29' E 014°37'0 0.0
2017-Jun-16 16:30N 53°29' E 014°37'0 0.0
2017-Jun-16 15:59N 53°29' E 014°37'0 0.0
2017-Jun-16 15:27N 53°29' E 014°37'0 0.0
2017-Jun-16 14:55N 53°29' E 014°37'0 0.0
2017-Jun-16 14:30N 53°29' E 014°37'0 0.0
2017-Jun-16 13:27N 53°29' E 014°37'0 0.0
2017-Jun-16 13:00N 53°29' E 014°37'0 0.0
2017-Jun-16 12:29N 53°29' E 014°37'0 0.0
2017-Jun-16 11:58N 53°29' E 014°37'0 0.0
2017-Jun-16 11:27N 53°29' E 014°37'0 0.0
2017-Jun-16 10:59N 53°29' E 014°37'0 0.0
2017-Jun-16 10:28N 53°29' E 014°37'0 0.1
2017-Jun-16 09:59N 53°29' E 014°37'4 7.8
2017-Jun-16 09:28N 53°25' E 014°37'0 0.3
2017-Jun-16 08:52N 53°24' E 014°36'0 0.0
2017-Jun-16 08:22N 53°24' E 014°36'0 0.0
2017-Jun-16 07:55N 53°24' E 014°36'0 0.0
2017-Jun-16 07:25N 53°24' E 014°36'0 0.0
2017-Jun-16 06:34N 53°24' E 014°36'0 0.0
2017-Jun-16 06:13N 53°24' E 014°36'0 0.0
2017-Jun-16 04:49N 53°24' E 014°36'0 0.0
2017-Jun-16 04:25N 53°24' E 014°36'0 0.0
2017-Jun-16 03:52N 53°24' E 014°36'0 0.0
2017-Jun-16 02:49N 53°24' E 014°36'0 0.0
2017-Jun-16 02:22N 53°24' E 014°36'0 0.0
2017-Jun-16 01:58N 53°24' E 014°36'0 0.0
2017-Jun-16 01:16N 53°24' E 014°36'0 0.0
2017-Jun-15 23:37N 53°24' E 014°36'0 0.0
2017-Jun-15 23:22N 53°24' E 014°36'0 0.0
2017-Jun-15 22:46N 53°24' E 014°36'0 0.0
2017-Jun-15 22:04N 53°24' E 014°36'0 0.0
2017-Jun-15 21:46N 53°24' E 014°36'0 0.0
2017-Jun-15 17:52N 53°24' E 014°36'0 0.6
2017-Jun-15 17:19N 53°25' E 014°36'0 0.0
2017-Jun-15 16:34N 53°25' E 014°36'0 0.0
2017-Jun-15 16:16N 53°25' E 014°36'0 0.0
2017-Jun-15 15:58N 53°25' E 014°36'0 0.0
2017-Jun-15 15:19N 53°25' E 014°36'0 0.0
2017-Jun-15 14:55N 53°25' E 014°36'0 0.0
2017-Jun-15 13:49N 53°25' E 014°36'0 0.0
2017-Jun-15 13:28N 53°25' E 014°36'0 0.0
2017-Jun-15 12:53N 53°25' E 014°36'0 0.0
2017-Jun-15 12:25N 53°25' E 014°36'0 0.0
2017-Jun-15 11:52N 53°25' E 014°36'0 0.0
2017-Jun-15 11:28N 53°25' E 014°36'0 0.0
2017-Jun-15 10:52N 53°25' E 014°36'0 0.0
2017-Jun-15 10:07N 53°25' E 014°36'0 0.0
2017-Jun-15 09:49N 53°25' E 014°36'0 0.0
2017-Jun-15 09:14N 53°25' E 014°36'0 0.0
2017-Jun-15 08:58N 53°25' E 014°36'0 0.0
2017-Jun-15 08:22N 53°25' E 014°36'0 0.0
2017-Jun-15 07:55N 53°25' E 014°36'0 0.0
2017-Jun-15 07:22N 53°25' E 014°36'  
Track history (hours):
 
Tides and Currents Weather Stations Pressure Air Temp Water Temp Dewpoint Dewpoint Depression Visibility Wind Speed Wind Dir Waves Ship Positions

Marten

Last reported at 2017-Jun-25 06:59 UTC. Time now 2017-Jun-26 03:48 UTC.
Position N 58°26' E 004°54'.

Length 90 m; draft 5.8 m.

Type: Ship. MMSI: 212376000.

Date/timePositionNaut miles runAvg speedWind from/ knotsBaromVisibWave heightAir tempDewpointWater temp
2017-Jun-25 06:59N 58°26' E 004°54'3 6.8
2017-Jun-25 06:30N 58°29' E 004°55'3 6.9
2017-Jun-25 06:00N 58°33' E 004°57'3 6.8
2017-Jun-25 05:30N 58°36' E 004°59'4 7.4
2017-Jun-25 05:00N 58°40' E 004°59'4 7.9
2017-Jun-25 04:30N 58°44' E 004°57'5 8.1
2017-Jun-25 03:56N 58°48' E 004°55'3 8.0
2017-Jun-25 03:30N 58°51' E 004°54'37 9.0
2017-Jun-24 23:20N 59°29' E 004°43'3 8.9
2017-Jun-24 23:00N 59°32' E 004°42'4 8.6
2017-Jun-24 22:29N 59°36' E 004°42'4 8.3
2017-Jun-24 22:00N 59°40' E 004°42'4 8.1
2017-Jun-24 21:30N 59°44' E 004°41'4 8.1
2017-Jun-24 21:00N 59°48' E 004°40'4 7.9
2017-Jun-24 20:30N 59°52' E 004°39'4 8.0
2017-Jun-24 20:00N 59°56' E 004°38'4 7.8
2017-Jun-24 19:30N 59°60' E 004°37'4 7.6
2017-Jun-24 19:00N 60°03' E 004°36'4 7.2
2017-Jun-24 18:30N 60°07' E 004°36'4 7.2
2017-Jun-24 18:00N 60°11' E 004°35'4 7.4
2017-Jun-24 17:30N 60°14' E 004°35'4 7.6
2017-Jun-24 17:00N 60°18' E 004°34'4 7.6
2017-Jun-24 16:30N 60°22' E 004°32'4 7.8
2017-Jun-24 16:00N 60°26' E 004°31'4 7.9
2017-Jun-24 15:30N 60°30' E 004°30'4 8.2
2017-Jun-24 15:00N 60°34' E 004°29'8 8.0
2017-Jun-24 14:00N 60°42' E 004°28'4 7.7
2017-Jun-24 13:30N 60°46' E 004°28'4 7.8
2017-Jun-24 13:00N 60°50' E 004°27'4 7.7
2017-Jun-24 12:30N 60°53' E 004°26'4 8.1
2017-Jun-24 11:59N 60°58' E 004°25'4 7.9
2017-Jun-24 11:30N 61°01' E 004°25'4 7.9
2017-Jun-24 11:00N 61°05' E 004°25'4 8.4
2017-Jun-24 10:30N 61°10' E 004°26'4 8.9
2017-Jun-24 10:00N 61°14' E 004°27'5 9.0
2017-Jun-24 09:30N 61°18' E 004°27'4 8.9
2017-Jun-24 09:00N 61°23' E 004°28'4 8.8
2017-Jun-24 08:30N 61°27' E 004°28'4 8.8
2017-Jun-24 08:00N 61°32' E 004°29'4 8.5
2017-Jun-24 07:29N 61°36' E 004°31'4 8.1
2017-Jun-24 07:00N 61°40' E 004°32'4 7.4
2017-Jun-24 06:30N 61°41' E 004°40'4 7.7
2017-Jun-24 06:00N 61°42' E 004°47'4 7.8
2017-Jun-24 05:30N 61°43' E 004°55'3 6.3
2017-Jun-24 05:00N 61°40' E 004°58'0 0.0
2017-Jun-24 04:28N 61°40' E 004°58'0 0.0
2017-Jun-24 03:55N 61°40' E 004°58'0 0.0
2017-Jun-24 03:28N 61°40' E 004°58'0 0.0
2017-Jun-24 02:58N 61°40' E 004°58'0 0.0
2017-Jun-24 02:28N 61°40' E 004°58'0 0.0
2017-Jun-24 01:58N 61°40' E 004°58'0 0.0
2017-Jun-24 01:28N 61°40' E 004°58'0 0.0
2017-Jun-24 00:58N 61°40' E 004°58'0 0.0
2017-Jun-24 00:28N 61°40' E 004°58'0 0.0
2017-Jun-23 23:58N 61°40' E 004°58'0 0.0
2017-Jun-23 23:28N 61°40' E 004°58'0 0.0
2017-Jun-23 22:58N 61°40' E 004°58'0 0.0
2017-Jun-23 22:28N 61°40' E 004°58'0 0.0
2017-Jun-23 21:58N 61°40' E 004°58'0 0.0
2017-Jun-23 21:28N 61°40' E 004°58'0 0.0
2017-Jun-23 20:58N 61°40' E 004°58'0 0.0
2017-Jun-23 20:28N 61°40' E 004°58'0 0.0
2017-Jun-23 19:58N 61°40' E 004°58'0 0.0
2017-Jun-23 19:28N 61°40' E 004°58'0 0.0
2017-Jun-23 18:58N 61°40' E 004°58'0 0.0
2017-Jun-23 18:28N 61°40' E 004°58'0 0.0
2017-Jun-23 17:58N 61°40' E 004°58'0 0.0
2017-Jun-23 17:28N 61°40' E 004°58'0 0.0
2017-Jun-23 16:58N 61°40' E 004°58'0 0.0
2017-Jun-23 16:28N 61°40' E 004°58'0 0.0
2017-Jun-23 15:58N 61°40' E 004°58'0 0.0
2017-Jun-23 15:30N 61°40' E 004°58'2 4.9
2017-Jun-23 15:00N 61°42' E 004°56'4 8.2
2017-Jun-23 14:30N 61°42' E 004°47'4 8.5
2017-Jun-23 14:00N 61°44' E 004°38'3 6.3
2017-Jun-23 13:29N 61°47' E 004°37'4 7.6
2017-Jun-23 13:00N 61°50' E 004°39'4 7.6
2017-Jun-23 12:30N 61°54' E 004°41'4 8.0
2017-Jun-23 12:00N 61°58' E 004°45'611.0
2017-Jun-23 11:29N 62°03' E 004°49'510.8
2017-Jun-23 10:59N 62°08' E 004°54'510.8
2017-Jun-23 10:30N 62°13' E 004°58'510.8
2017-Jun-23 10:00N 62°17' E 005°04'510.8
2017-Jun-23 09:30N 62°22' E 005°11'511.1
2017-Jun-23 09:00N 62°26' E 005°19'611.4
2017-Jun-23 08:30N 62°30' E 005°27'611.2
2017-Jun-23 08:00N 62°34' E 005°35'510.7
2017-Jun-23 07:30N 62°38' E 005°43'510.9
2017-Jun-23 07:00N 62°42' E 005°51'510.9
2017-Jun-23 06:30N 62°46' E 005°59'511.0
2017-Jun-23 06:00N 62°51' E 006°07'511.0
2017-Jun-23 05:30N 62°55' E 006°15'610.8
2017-Jun-23 05:00N 62°59' E 006°22'511.0
2017-Jun-23 04:30N 63°03' E 006°30'511.0
2017-Jun-23 04:00N 63°07' E 006°39'611.0
2017-Jun-23 03:30N 63°11' E 006°47'510.9
2017-Jun-23 03:00N 63°15' E 006°55'611.0
2017-Jun-23 02:30N 63°19' E 007°03'611.2
2017-Jun-23 02:00N 63°23' E 007°11'611.1
2017-Jun-23 01:30N 63°28' E 007°19'611.3
2017-Jun-23 01:00N 63°32' E 007°28'611.3
2017-Jun-23 00:30N 63°36' E 007°36'610.9
2017-Jun-23 00:00N 63°40' E 007°45'511.1
2017-Jun-22 23:30N 63°44' E 007°53'611.1
2017-Jun-22 23:00N 63°48' E 008°01'611.1
2017-Jun-22 22:30N 63°52' E 008°10'510.9
2017-Jun-22 21:59N 63°56' E 008°19'9010.9
2017-Jun-22 13:44N 65°08' E 010°27'311.1
2017-Jun-22 13:30N 65°10' E 010°30'611.2
2017-Jun-22 13:00N 65°15' E 010°35'611.8
2017-Jun-22 12:30N 65°21' E 010°41'611.3
2017-Jun-22 12:00N 65°26' E 010°45'52 9.4
2017-Jun-22 06:25N 66°13' E 011°42'4 9.4
2017-Jun-22 06:00N 66°14' E 011°51'5 9.5
2017-Jun-22 05:29N 66°16' E 012°03'5 9.7
2017-Jun-22 05:00N 66°17' E 012°14'5 9.9
2017-Jun-22 04:30N 66°15' E 012°26'5 9.1
2017-Jun-22 04:00N 66°15' E 012°37'611.0
2017-Jun-22 03:30N 66°11' E 012°48'510.3
2017-Jun-22 02:59N 66°10' E 013°01'612.3
2017-Jun-22 02:30N 66°13' E 013°14'611.4
2017-Jun-22 02:00N 66°14' E 013°27'611.9
2017-Jun-22 01:29N 66°15' E 013°42'611.6
2017-Jun-22 01:00N 66°16' E 013°56'5 9.4
2017-Jun-22 00:30N 66°18' E 014°07'0 0.1
2017-Jun-21 23:59N 66°18' E 014°07'0 0.0
2017-Jun-21 23:29N 66°18' E 014°07'0 0.0
2017-Jun-21 22:59N 66°18' E 014°07'0 0.0
2017-Jun-21 22:30N 66°18' E 014°07'0 0.0
2017-Jun-21 22:00N 66°18' E 014°07'0 0.0
2017-Jun-21 21:30N 66°18' E 014°07'0 0.0
2017-Jun-21 20:59N 66°18' E 014°07'0 0.0
2017-Jun-21 20:29N 66°18' E 014°07'0 0.0
2017-Jun-21 19:59N 66°18' E 014°07'0 0.0
2017-Jun-21 19:29N 66°18' E 014°07'0 0.0
2017-Jun-21 18:59N 66°18' E 014°07'0 0.0
2017-Jun-21 18:29N 66°18' E 014°07'0 0.0
2017-Jun-21 17:59N 66°18' E 014°07'0 0.0
2017-Jun-21 17:29N 66°18' E 014°07'0 0.0
2017-Jun-21 16:59N 66°18' E 014°07'0 0.0
2017-Jun-21 16:29N 66°18' E 014°07'0 0.0
2017-Jun-21 15:59N 66°18' E 014°07'0 0.0
2017-Jun-21 15:29N 66°18' E 014°07'0 0.0
2017-Jun-21 14:59N 66°18' E 014°07'0 0.0
2017-Jun-21 14:29N 66°18' E 014°07'0 0.0
2017-Jun-21 13:29N 66°18' E 014°07'0 0.0
2017-Jun-21 12:59N 66°18' E 014°07'0 0.0
2017-Jun-21 12:29N 66°18' E 014°07'0 0.0
2017-Jun-21 11:59N 66°18' E 014°07'0 0.0
2017-Jun-21 11:29N 66°18' E 014°07'0 0.0
2017-Jun-21 11:00N 66°18' E 014°07'0 0.0
2017-Jun-21 10:29N 66°18' E 014°07'0 0.0
2017-Jun-21 09:59N 66°18' E 014°07'0 0.0
2017-Jun-21 09:29N 66°18' E 014°07'0 0.0
2017-Jun-21 08:59N 66°18' E 014°07'0 0.0
2017-Jun-21 08:29N 66°18' E 014°07'0 0.0
2017-Jun-21 07:59N 66°18' E 014°07'0 0.0
2017-Jun-21 07:29N 66°18' E 014°07'0 0.0
2017-Jun-21 06:59N 66°18' E 014°07'1 1.4
2017-Jun-21 06:30N 66°18' E 014°05'510.3
2017-Jun-21 06:00N 66°16' E 013°54'510.4
2017-Jun-21 05:30N 66°15' E 013°41'5 9.9
2017-Jun-21 05:00N 66°15' E 013°29'5 9.3
2017-Jun-21 04:30N 66°14' E 013°18'5 9.5
2017-Jun-21 04:00N 66°11' E 013°08'5 9.8
2017-Jun-21 03:30N 66°09' E 012°57'5 9.4
2017-Jun-21 03:00N 66°12' E 012°47'510.3
2017-Jun-21 02:30N 66°15' E 012°36'4 8.9
2017-Jun-21 02:00N 66°15' E 012°26'4 8.6
2017-Jun-21 01:30N 66°17' E 012°16'4 8.7
2017-Jun-21 01:00N 66°16' E 012°06'5 9.0
2017-Jun-21 00:30N 66°15' E 011°55'258 9.9
2017-Jun-19 22:22N 62°52' E 005°44'410.6
2017-Jun-19 22:00N 62°49' E 005°39'510.3
2017-Jun-19 21:30N 62°45' E 005°32'510.4
2017-Jun-19 21:00N 62°40' E 005°25'510.6
2017-Jun-19 20:30N 62°36' E 005°18'510.7
2017-Jun-19 20:00N 62°32' E 005°11'510.8
2017-Jun-19 19:30N 62°28' E 005°04'510.6
2017-Jun-19 19:00N 62°23' E 004°59'510.6
2017-Jun-19 18:30N 62°18' E 004°54'510.7
2017-Jun-19 18:00N 62°13' E 004°49'510.6
2017-Jun-19 17:29N 62°08' E 004°44'510.7
2017-Jun-19 17:00N 62°04' E 004°39'611.0
2017-Jun-19 16:28N 61°58' E 004°34'510.9
2017-Jun-19 16:00N 61°54' E 004°29'2810.4
2017-Jun-19 13:22N 61°27' E 004°20'511.5
2017-Jun-19 12:57N 61°22' E 004°20'511.8
2017-Jun-19 12:30N 61°17' E 004°20'611.5
2017-Jun-19 12:00N 61°11' E 004°21'611.8
2017-Jun-19 11:30N 61°05' E 004°22'611.8
2017-Jun-19 11:00N 60°59' E 004°23'611.9
2017-Jun-19 10:30N 60°53' E 004°25'611.8
2017-Jun-19 10:00N 60°47' E 004°26'611.6
2017-Jun-19 09:30N 60°42' E 004°27'611.0
2017-Jun-19 09:00N 60°36' E 004°29'611.4
2017-Jun-19 08:30N 60°30' E 004°31'611.0
2017-Jun-19 08:00N 60°25' E 004°33'510.9
2017-Jun-19 07:30N 60°20' E 004°36'611.1
2017-Jun-19 07:00N 60°14' E 004°37'610.9
2017-Jun-19 06:30N 60°09' E 004°38'510.5
2017-Jun-19 06:01N 60°04' E 004°40'510.3
2017-Jun-19 05:30N 59°58' E 004°40'510.6
2017-Jun-19 05:00N 59°53' E 004°38'4410.6
2017-Jun-19 00:52N 59°10' E 004°49'411.0
2017-Jun-19 00:30N 59°06' E 004°53'611.0
2017-Jun-19 00:00N 59°01' E 004°58'510.6
2017-Jun-18 23:30N 58°57' E 005°04'510.9
2017-Jun-18 23:00N 58°52' E 005°09'611.4
2017-Jun-18 22:30N 58°47' E 005°15'611.3
2017-Jun-18 22:00N 58°43' E 005°20'611.2
2017-Jun-18 21:30N 58°38' E 005°26'510.9
2017-Jun-18 21:00N 58°33' E 005°32'510.5
2017-Jun-18 20:30N 58°29' E 005°37'510.1
2017-Jun-18 20:00N 58°25' E 005°44'510.1
2017-Jun-18 19:30N 58°22' E 005°51'510.5
2017-Jun-18 19:00N 58°18' E 005°58'611.1
2017-Jun-18 18:30N 58°14' E 006°06'510.9
2017-Jun-18 18:00N 58°11' E 006°14'510.8
2017-Jun-18 17:30N 58°07' E 006°21'510.5
2017-Jun-18 17:00N 58°03' E 006°28'5 9.8
2017-Jun-18 16:30N 58°01' E 006°36'5 9.4
2017-Jun-18 16:00N 57°59' E 006°44'5 9.8
2017-Jun-18 15:30N 57°57' E 006°52'5 9.6
2017-Jun-18 15:00N 57°55' E 007°01'10 9.8
2017-Jun-18 14:00N 57°54' E 007°19'510.6
2017-Jun-18 13:29N 57°54' E 007°29'510.8
2017-Jun-18 13:00N 57°54' E 007°39'611.0
2017-Jun-18 12:30N 57°54' E 007°50'611.3
2017-Jun-18 12:00N 57°53' E 008°00'611.2
2017-Jun-18 11:30N 57°53' E 008°11'510.7
2017-Jun-18 11:00N 57°53' E 008°21'36 9.3
2017-Jun-18 07:08N 57°51' E 009°28'1 9.1
2017-Jun-18 06:59N 57°51' E 009°31'5 9.3
2017-Jun-18 06:27N 57°51' E 009°40'4 9.4
2017-Jun-18 06:00N 57°50' E 009°48'5 9.6
2017-Jun-18 05:30N 57°50' E 009°57'5 9.8
2017-Jun-18 05:00N 57°50' E 010°06'510.0
2017-Jun-18 04:30N 57°50' E 010°16'5 9.7
2017-Jun-18 04:00N 57°49' E 010°25'5 9.2
2017-Jun-18 03:30N 57°49' E 010°33'4 9.0
2017-Jun-18 03:00N 57°49' E 010°42'4 8.5
2017-Jun-18 02:30N 57°47' E 010°49'5 9.3
2017-Jun-18 02:00N 57°44' E 010°55'5 9.1
2017-Jun-18 01:30N 57°41' E 011°02'5 9.4
2017-Jun-18 01:00N 57°38' E 011°08'5 9.4
2017-Jun-18 00:30N 57°34' E 011°14'5 9.8
2017-Jun-18 00:00N 57°31' E 011°21'5 9.7
2017-Jun-17 23:30N 57°28' E 011°27'5 9.9
2017-Jun-17 23:00N 57°23' E 011°30'5 9.9
2017-Jun-17 22:30N 57°18' E 011°33'5 9.9
2017-Jun-17 22:00N 57°14' E 011°37'610.8
2017-Jun-17 21:29N 57°08' E 011°40'510.9
2017-Jun-17 21:00N 57°04' E 011°44'810.6
2017-Jun-17 20:13N 56°56' E 011°50'210.1
2017-Jun-17 19:59N 56°54' E 011°52'610.2
2017-Jun-17 19:24N 56°49' E 011°57'410.6
2017-Jun-17 19:00N 56°45' E 012°01'910.3
2017-Jun-17 18:07N 56°37' E 012°08'110.0
2017-Jun-17 17:59N 56°35' E 012°09'510.3
2017-Jun-17 17:30N 56°31' E 012°13'510.4
2017-Jun-17 17:00N 56°26' E 012°17'510.6
2017-Jun-17 16:30N 56°21' E 012°20'510.5
2017-Jun-17 16:00N 56°17' E 012°25'510.6
2017-Jun-17 15:30N 56°12' E 012°29'510.4
2017-Jun-17 15:00N 56°07' E 012°33'10 9.7
2017-Jun-17 14:01N 55°59' E 012°42'5 9.9
2017-Jun-17 13:30N 55°54' E 012°45'510.3
2017-Jun-17 13:00N 55°49' E 012°43'510.4
2017-Jun-17 12:30N 55°44' E 012°42'510.5
2017-Jun-17 12:00N 55°39' E 012°42'510.5
2017-Jun-17 11:30N 55°34' E 012°42'510.6
2017-Jun-17 11:00N 55°28' E 012°43'510.6
2017-Jun-17 10:30N 55°23' E 012°42'5 9.6
2017-Jun-17 10:00N 55°18' E 012°43'510.7
2017-Jun-17 09:30N 55°16' E 012°52'510.5
2017-Jun-17 09:00N 55°12' E 012°59'101 9.0
2017-Jun-16 21:50N 53°45' E 014°25'310.3
2017-Jun-16 21:30N 53°42' E 014°28'510.2
2017-Jun-16 21:00N 53°38' E 014°34'8 9.9
2017-Jun-16 20:12N 53°31' E 014°38'2 8.5
2017-Jun-16 19:56N 53°29' E 014°37'0 0.2
2017-Jun-16 19:24N 53°29' E 014°37'0 0.0
2017-Jun-16 18:57N 53°29' E 014°37'0 0.0
2017-Jun-16 18:30N 53°29' E 014°37'0 0.0
2017-Jun-16 17:55N 53°29' E 014°37'0 0.0
2017-Jun-16 17:29N 53°29' E 014°37'0 0.0
2017-Jun-16 16:57N 53°29' E 014°37'0 0.0
2017-Jun-16 16:30N 53°29' E 014°37'0 0.0
2017-Jun-16 15:59N 53°29' E 014°37'0 0.0
2017-Jun-16 15:27N 53°29' E 014°37'0 0.0
2017-Jun-16 14:55N 53°29' E 014°37'0 0.0
2017-Jun-16 14:30N 53°29' E 014°37'0 0.0
2017-Jun-16 13:27N 53°29' E 014°37'0 0.0
2017-Jun-16 13:00N 53°29' E 014°37'0 0.0
2017-Jun-16 12:29N 53°29' E 014°37'0 0.0
2017-Jun-16 11:58N 53°29' E 014°37'0 0.0
2017-Jun-16 11:27N 53°29' E 014°37'0 0.0
2017-Jun-16 10:59N 53°29' E 014°37'0 0.0
2017-Jun-16 10:28N 53°29' E 014°37'0 0.1
2017-Jun-16 09:59N 53°29' E 014°37'4 7.8
2017-Jun-16 09:28N 53°25' E 014°37'0 0.3
2017-Jun-16 08:52N 53°24' E 014°36'0 0.0
2017-Jun-16 08:22N 53°24' E 014°36'0 0.0
2017-Jun-16 07:55N 53°24' E 014°36'0 0.0
2017-Jun-16 07:25N 53°24' E 014°36'0 0.0
2017-Jun-16 06:34N 53°24' E 014°36'0 0.0
2017-Jun-16 06:13N 53°24' E 014°36'0 0.0
2017-Jun-16 04:49N 53°24' E 014°36'0 0.0
2017-Jun-16 04:25N 53°24' E 014°36'0 0.0
2017-Jun-16 03:52N 53°24' E 014°36'0 0.0
2017-Jun-16 02:49N 53°24' E 014°36'0 0.0
2017-Jun-16 02:22N 53°24' E 014°36'0 0.0
2017-Jun-16 01:58N 53°24' E 014°36'0 0.0
2017-Jun-16 01:16N 53°24' E 014°36'0 0.0
2017-Jun-15 23:37N 53°24' E 014°36'0 0.0
2017-Jun-15 23:22N 53°24' E 014°36'0 0.0
2017-Jun-15 22:46N 53°24' E 014°36'0 0.0
2017-Jun-15 22:04N 53°24' E 014°36'0 0.0
2017-Jun-15 21:46N 53°24' E 014°36'0 0.0
2017-Jun-15 17:52N 53°24' E 014°36'0 0.6
2017-Jun-15 17:19N 53°25' E 014°36'0 0.0
2017-Jun-15 16:34N 53°25' E 014°36'0 0.0
2017-Jun-15 16:16N 53°25' E 014°36'0 0.0
2017-Jun-15 15:58N 53°25' E 014°36'0 0.0
2017-Jun-15 15:19N 53°25' E 014°36'0 0.0
2017-Jun-15 14:55N 53°25' E 014°36'0 0.0
2017-Jun-15 13:49N 53°25' E 014°36'0 0.0
2017-Jun-15 13:28N 53°25' E 014°36'0 0.0
2017-Jun-15 12:53N 53°25' E 014°36'0 0.0
2017-Jun-15 12:25N 53°25' E 014°36'0 0.0
2017-Jun-15 11:52N 53°25' E 014°36'0 0.0
2017-Jun-15 11:28N 53°25' E 014°36'0 0.0
2017-Jun-15 10:52N 53°25' E 014°36'0 0.0
2017-Jun-15 10:07N 53°25' E 014°36'0 0.0
2017-Jun-15 09:49N 53°25' E 014°36'0 0.0
2017-Jun-15 09:14N 53°25' E 014°36'0 0.0
2017-Jun-15 08:58N 53°25' E 014°36'0 0.0
2017-Jun-15 08:22N 53°25' E 014°36'0 0.0
2017-Jun-15 07:55N 53°25' E 014°36'0 0.0
2017-Jun-15 07:22N 53°25' E 014°36'  

Dump ship's entire track history